KRCR

Fulton County Airport

Rochester, Indiana, USA
METAR KRCR 250515Z AUTO 00000KT 10SM CLR 16/12 A3007 RMK AO2
Observed Flight Rules
May-25 @ 05:15 UTC (13 minutes ago) Visual Flight Rules
Visibility Clouds
10 miles
  • Clear skies
Temperatures Readings
Current 16°C / 61°F
Dewpoint 12°C / 54°F
Humidity 77%
Altimeter 30.07" Hg
Pressure 1018 hPa
Elevation 241
METAR KRCR 250515Z AUTO 00000KT 10SM CLR 16/12 A3007 RMK AO2
Observed Flight Rules
May-25 @ 05:15 UTC
(13 minutes ago)
VFR
Clouds
  • Clear skies
Temperature Dewpoint
16°C / 61°F 12°C / 54°F
Humidity Altimeter Pressure
77% 30.07" Hg 1018 hPa